Radical, North Carolina
Current Conditions -  °F | °C
As of 8:15 AM on Thursday 27 Nov 2014 (Local Time) from KUKF Reporting Station
Broken Clouds Broken Clouds  
Wind Chill: 36°   Ceiling: 7000
Heat Index: 36°   Visibility: 7mi
Dew Point: 36°   Wind: 0mph
Humidity: 100%   Direction: NA
Pressure: 30.06"   Gusts: NA
Location:  36.2923°N, 81.2106°W
Report Text: KUKF 271315Z AUTO 00000KT 7SM SCT060 BKN070 BKN080 02/02 A3006 RMK AO2
Loading
Personal Weather Stations






























Interactive Weather Map New forecast layout! Learn more

10-Day Weather Forecast

Advertisements
Track Severe Weather on mobile